createdAt,value
2023-04-11T00:00:04.239Z,10.43
2023-04-11T00:04:25.690Z,11.65
2023-04-11T00:08:38.228Z,10.90
2023-04-11T00:12:50.588Z,11.93
2023-04-11T00:17:03.090Z,13.23
2023-04-11T00:21:15.546Z,10.60
2023-04-11T00:25:30.366Z,9.98
2023-04-11T00:29:42.862Z,10.90
2023-04-11T00:33:55.199Z,9.65
2023-04-11T00:38:07.669Z,9.52
2023-04-11T00:42:20.502Z,11.68
2023-04-11T00:46:36.229Z,9.80
2023-04-11T00:50:48.881Z,11.85
2023-04-11T00:55:03.704Z,10.40
2023-04-11T00:59:16.297Z,15.20
2023-04-11T01:03:29.761Z,12.20
2023-04-11T01:07:45.954Z,16.48
2023-04-11T01:12:01.697Z,14.32
2023-04-11T01:16:15.785Z,19.15
2023-04-11T01:20:29.983Z,19.15
2023-04-11T01:24:42.533Z,18.50
2023-04-11T01:28:55.246Z,22.55
2023-04-11T01:33:07.975Z,19.02
2023-04-11T01:37:20.766Z,19.40
2023-04-11T01:41:35.022Z,16.77
2023-04-11T01:45:47.845Z,17.73
2023-04-11T01:50:00.211Z,20.95
2023-04-11T01:54:14.877Z,22.30
2023-04-11T01:58:27.516Z,21.98
2023-04-11T02:02:40.308Z,23.52
2023-04-11T02:06:54.698Z,17.90
2023-04-11T02:11:08.458Z,12.80
2023-04-11T02:15:20.979Z,11.82
2023-04-11T02:19:34.731Z,15.70
2023-04-11T02:23:47.162Z,11.32
2023-04-11T02:27:59.597Z,12.40
2023-04-11T02:32:12.172Z,11.38
2023-04-11T02:36:24.595Z,12.15
2023-04-11T02:40:36.923Z,12.02
2023-04-11T02:44:49.498Z,13.80
2023-04-11T02:49:05.265Z,10.82
2023-04-11T02:53:18.954Z,11.82
2023-04-11T02:57:34.670Z,12.38
2023-04-11T03:01:47.318Z,12.10
2023-04-11T03:06:00.356Z,14.13
2023-04-11T03:10:13.153Z,13.52
2023-04-11T03:14:25.642Z,16.52
2023-04-11T03:18:38.006Z,17.10
2023-04-11T03:22:54.197Z,16.27
2023-04-11T03:27:06.731Z,20.30
2023-04-11T03:31:20.026Z,17.02
2023-04-11T03:35:33.481Z,17.33
2023-04-11T03:39:46.111Z,13.73
2023-04-11T03:43:58.624Z,12.57
2023-04-11T03:48:11.181Z,11.65
2023-04-11T03:52:35.321Z,12.95
2023-04-11T03:56:50.899Z,11.95
2023-04-11T04:01:07.794Z,12.00
2023-04-11T04:05:21.318Z,12.75
2023-04-11T04:09:34.582Z,12.80
2023-04-11T04:13:49.355Z,12.07
2023-04-11T04:18:04.870Z,13.77
2023-04-11T04:22:27.134Z,11.50
2023-04-11T04:26:41.622Z,11.98
2023-04-11T04:31:06.177Z,13.63
2023-04-11T04:35:25.190Z,13.38
2023-04-11T04:39:39.627Z,13.77
2023-04-11T04:44:00.410Z,14.40
2023-04-11T04:48:27.375Z,13.32
2023-04-11T04:52:39.817Z,12.32
2023-04-11T04:56:52.312Z,13.23
2023-04-11T05:01:05.504Z,10.98
2023-04-11T05:05:19.678Z,10.80
2023-04-11T05:09:33.576Z,11.82
2023-04-11T05:14:00.665Z,12.52
2023-04-11T05:18:13.360Z,11.32
2023-04-11T05:22:26.251Z,10.52
2023-04-11T05:26:40.992Z,10.35
2023-04-11T05:30:54.734Z,10.35
2023-04-11T05:35:10.629Z,10.63
2023-04-11T05:39:35.858Z,11.40
2023-04-11T05:43:48.520Z,12.57
2023-04-11T05:48:01.021Z,9.30
2023-04-11T05:52:13.547Z,10.63
2023-04-11T05:56:26.016Z,10.57
2023-04-11T06:00:38.890Z,18.50
2023-04-11T06:04:51.667Z,12.55
2023-04-11T06:09:05.435Z,16.92
2023-04-11T06:13:17.756Z,20.55
2023-04-11T06:17:30.480Z,16.80
2023-04-11T06:21:44.285Z,27.63
2023-04-11T06:25:56.801Z,18.15
2023-04-11T06:30:09.974Z,18.20
2023-04-11T06:34:22.395Z,20.63
2023-04-11T06:38:37.009Z,24.17
2023-04-11T06:42:50.646Z,21.90
2023-04-11T06:47:03.516Z,20.83
2023-04-11T06:51:16.021Z,19.05
2023-04-11T06:55:28.371Z,20.30
2023-04-11T06:59:40.846Z,21.63
2023-04-11T07:03:53.791Z,19.08
2023-04-11T07:08:06.392Z,16.77
2023-04-11T07:12:18.838Z,20.48
2023-04-11T07:16:31.362Z,18.92
2023-04-11T07:20:43.823Z,24.27
2023-04-11T07:24:57.703Z,27.00
2023-04-11T07:29:11.619Z,20.50
2023-04-11T07:33:25.681Z,20.30
2023-04-11T07:37:38.597Z,24.05
2023-04-11T07:41:51.089Z,21.33
2023-04-11T07:46:03.993Z,22.08
2023-04-11T07:50:19.577Z,17.90
2023-04-11T07:54:32.340Z,17.67
2023-04-11T07:58:44.836Z,18.52
2023-04-11T08:02:59.281Z,16.58
2023-04-11T08:07:11.933Z,20.10
2023-04-11T08:11:24.355Z,18.00
2023-04-11T08:15:39.093Z,14.20
2023-04-11T08:19:51.794Z,15.88
2023-04-11T08:24:07.515Z,17.08
2023-04-11T08:28:21.186Z,17.42
2023-04-11T08:32:33.557Z,21.27
2023-04-11T08:36:47.062Z,18.42
2023-04-11T08:40:59.559Z,15.70
2023-04-11T08:45:12.372Z,15.18
2023-04-11T08:49:24.876Z,13.27
2023-04-11T08:53:39.353Z,10.27
2023-04-11T08:57:53.919Z,12.23
2023-04-11T09:02:11.487Z,7.63
2023-04-11T09:06:24.827Z,7.65
2023-04-11T09:10:38.980Z,9.23
2023-04-11T09:14:53.405Z,12.55
2023-04-11T09:19:24.255Z,7.00
2023-04-11T09:23:37.659Z,12.73
2023-04-11T09:28:09.617Z,7.85
2023-04-11T09:32:36.453Z,6.95
2023-04-11T09:36:56.214Z,8.50
2023-04-11T09:41:08.701Z,9.43
2023-04-11T09:45:24.627Z,9.25
2023-04-11T09:49:37.476Z,13.27
2023-04-11T09:53:50.023Z,13.55
2023-04-11T09:58:05.983Z,7.95
2023-04-11T10:02:18.365Z,9.65
2023-04-11T10:06:48.402Z,9.35
2023-04-11T10:11:02.093Z,9.23
2023-04-11T10:15:15.617Z,13.30
2023-04-11T10:19:28.253Z,10.35
2023-04-11T10:24:21.540Z,8.45
2023-04-11T10:28:36.105Z,7.00
2023-04-11T10:33:11.566Z,8.20
2023-04-11T10:37:37.766Z,8.40
2023-04-11T10:41:50.357Z,7.53
2023-04-11T10:46:23.129Z,8.27
2023-04-11T10:50:38.053Z,6.60
2023-04-11T10:54:54.751Z,9.23
2023-04-11T10:59:07.484Z,8.90
2023-04-11T11:03:25.477Z,18.73
2023-04-11T11:07:40.042Z,14.70
2023-04-11T11:12:15.983Z,7.68
2023-04-11T11:16:30.020Z,9.80
2023-04-11T11:20:42.770Z,13.75
2023-04-11T11:24:55.536Z,8.68
2023-04-11T11:29:08.661Z,8.25
2023-04-11T11:33:23.452Z,9.18
2023-04-11T11:37:36.047Z,6.43
2023-04-11T11:41:49.203Z,8.45
2023-04-11T11:46:15.403Z,7.13
2023-04-11T11:50:32.891Z,10.10
2023-04-11T11:54:48.152Z,9.07
2023-04-11T11:59:00.950Z,10.23
2023-04-11T12:03:18.546Z,22.33
2023-04-11T12:07:37.049Z,40.80
2023-04-11T12:11:49.439Z,18.85
2023-04-11T12:16:02.416Z,14.18
2023-04-11T12:20:17.856Z,10.48
2023-04-11T12:24:30.374Z,14.88
2023-04-11T12:28:42.785Z,16.80
2023-04-11T12:32:55.337Z,12.52
2023-04-11T12:37:07.967Z,8.70
2023-04-11T12:41:32.375Z,16.70
2023-04-11T12:45:45.145Z,12.40
2023-04-11T12:49:57.598Z,11.15
2023-04-11T12:54:10.082Z,11.63
2023-04-11T12:58:23.987Z,8.05
2023-04-11T13:02:42.755Z,9.50
2023-04-11T13:07:02.137Z,14.75
2023-04-11T13:11:14.598Z,11.05
2023-04-11T13:15:27.395Z,22.35
2023-04-11T13:19:39.961Z,10.27
2023-04-11T13:23:52.551Z,15.90
2023-04-11T13:28:04.918Z,13.57
2023-04-11T13:32:17.339Z,14.35
2023-04-11T13:36:30.075Z,12.70
2023-04-11T13:40:43.017Z,12.38
2023-04-11T13:44:55.677Z,11.10
2023-04-11T13:49:08.236Z,9.57
2023-04-11T13:53:20.625Z,11.23
2023-04-11T13:57:33.179Z,10.65
2023-04-11T14:01:45.749Z,8.10
2023-04-11T14:05:58.200Z,11.82
2023-04-11T14:10:11.271Z,12.75
2023-04-11T14:14:23.792Z,12.10
2023-04-11T14:18:36.641Z,7.70
2023-04-11T14:22:49.511Z,8.48
2023-04-11T14:27:02.698Z,8.55
2023-04-11T14:31:15.351Z,10.18
2023-04-11T14:35:27.942Z,11.13
2023-04-11T14:39:40.406Z,11.25
2023-04-11T14:43:52.802Z,11.00
2023-04-11T14:48:05.657Z,11.02
2023-04-11T14:52:18.291Z,14.10
2023-04-11T14:56:30.674Z,12.02
2023-04-11T15:00:43.210Z,11.38
2023-04-11T15:04:57.056Z,8.75
2023-04-11T15:09:10.055Z,10.20
2023-04-11T15:13:24.110Z,14.50
2023-04-11T15:17:42.431Z,12.88
2023-04-11T15:21:54.902Z,14.00
2023-04-11T15:26:08.870Z,9.05
2023-04-11T15:30:21.278Z,10.75
2023-04-11T15:34:33.640Z,11.93
2023-04-11T15:38:46.742Z,11.50
2023-04-11T15:42:59.247Z,14.55
2023-04-11T15:47:14.518Z,13.07
2023-04-11T15:51:27.537Z,10.38
2023-04-11T15:55:42.916Z,11.85
2023-04-11T15:59:56.209Z,11.60
2023-04-11T16:04:09.436Z,11.90
2023-04-11T16:08:22.227Z,9.35
2023-04-11T16:12:35.621Z,10.07
2023-04-11T16:16:48.358Z,13.70
2023-04-11T16:21:00.925Z,12.50
2023-04-11T16:25:16.342Z,12.43
2023-04-11T16:29:29.119Z,9.82
2023-04-11T16:33:41.721Z,12.55
2023-04-11T16:37:54.326Z,11.68
2023-04-11T16:42:06.892Z,12.13
2023-04-11T16:46:19.587Z,11.18
2023-04-11T16:50:32.357Z,11.75
2023-04-11T16:54:44.931Z,13.35
2023-04-11T16:58:57.838Z,13.77
2023-04-11T17:03:11.781Z,12.73
2023-04-11T17:07:24.308Z,19.85
2023-04-11T17:11:39.913Z,14.95
2023-04-11T17:15:52.303Z,13.98
2023-04-11T17:20:09.793Z,18.05
2023-04-11T17:24:22.417Z,20.23
2023-04-11T17:28:35.867Z,18.02
2023-04-11T17:32:49.376Z,15.90
2023-04-11T17:37:02.378Z,16.92
2023-04-11T17:41:15.838Z,20.20
2023-04-11T17:45:28.615Z,21.48
2023-04-11T17:49:41.197Z,19.05
2023-04-11T17:53:53.686Z,21.35
2023-04-11T17:58:06.525Z,19.75
2023-04-11T18:02:19.155Z,22.60
2023-04-11T18:06:34.577Z,24.13
2023-04-11T18:10:47.135Z,22.15
2023-04-11T18:14:59.709Z,24.63
2023-04-11T18:19:12.300Z,25.88
2023-04-11T18:23:24.641Z,24.17
2023-04-11T18:27:38.489Z,20.55
2023-04-11T18:31:50.999Z,31.30
2023-04-11T18:36:03.613Z,29.02
2023-04-11T18:40:18.480Z,32.38
2023-04-11T18:44:31.926Z,32.60
2023-04-11T18:48:47.113Z,24.65
2023-04-11T18:53:05.121Z,25.60
2023-04-11T18:57:18.932Z,31.65
2023-04-11T19:01:32.030Z,40.40
2023-04-11T19:05:45.661Z,30.60
2023-04-11T19:09:58.981Z,29.85
2023-04-11T19:14:11.588Z,35.40
2023-04-11T19:18:24.071Z,35.22
2023-04-11T19:22:40.165Z,37.40
2023-04-11T19:26:53.120Z,42.75
2023-04-11T19:31:05.939Z,43.75
2023-04-11T19:35:21.714Z,44.58
2023-04-11T19:39:38.692Z,44.53
2023-04-11T19:43:51.537Z,48.53
2023-04-11T19:48:04.274Z,40.88
2023-04-11T19:52:16.858Z,46.40
2023-04-11T19:56:29.484Z,37.92
2023-04-11T20:00:42.256Z,45.15
2023-04-11T20:04:56.401Z,28.60
2023-04-11T20:09:09.031Z,33.40
2023-04-11T20:13:21.873Z,33.17
2023-04-11T20:17:34.460Z,37.08
2023-04-11T20:21:46.975Z,27.70
2023-04-11T20:25:59.465Z,23.75
2023-04-11T20:30:13.272Z,27.70
2023-04-11T20:34:25.795Z,29.50
2023-04-11T20:38:38.364Z,26.27
2023-04-11T20:42:54.061Z,25.35
2023-04-11T20:47:07.770Z,26.38
2023-04-11T20:51:20.372Z,29.00
2023-04-11T20:55:33.731Z,25.27
2023-04-11T20:59:46.858Z,26.58
2023-04-11T21:04:02.994Z,21.52
2023-04-11T21:08:15.955Z,24.67
2023-04-11T21:12:28.280Z,24.20
2023-04-11T21:16:40.762Z,26.90
2023-04-11T21:20:53.222Z,22.70
2023-04-11T21:25:06.121Z,26.13
2023-04-11T21:29:18.639Z,18.75
2023-04-11T21:33:31.183Z,24.48
2023-04-11T21:37:43.610Z,17.67
2023-04-11T21:41:56.640Z,20.27
2023-04-11T21:46:09.054Z,24.45
2023-04-11T21:50:21.498Z,21.42
2023-04-11T21:54:34.599Z,20.13
2023-04-11T21:58:47.053Z,22.27
2023-04-11T22:02:59.642Z,18.23
2023-04-11T22:07:15.932Z,21.83
2023-04-11T22:11:28.506Z,22.33
2023-04-11T22:15:41.170Z,24.38
2023-04-11T22:19:53.604Z,22.05
2023-04-11T22:24:09.754Z,18.90
2023-04-11T22:28:22.471Z,22.52
2023-04-11T22:32:35.046Z,24.98
2023-04-11T22:36:47.698Z,21.00
2023-04-11T22:41:00.034Z,20.15
2023-04-11T22:45:12.416Z,19.88
2023-04-11T22:49:25.039Z,27.83
2023-04-11T22:53:42.355Z,20.75
2023-04-11T22:57:54.923Z,23.83
2023-04-11T23:02:07.626Z,19.77
2023-04-11T23:06:20.138Z,19.58
2023-04-11T23:10:32.533Z,19.55
2023-04-11T23:14:46.858Z,16.52
2023-04-11T23:18:59.565Z,17.08
2023-04-11T23:23:11.985Z,16.40
2023-04-11T23:27:24.793Z,18.55
2023-04-11T23:31:37.249Z,18.08
2023-04-11T23:35:49.674Z,15.80
2023-04-11T23:40:11.114Z,16.45
2023-04-11T23:44:24.010Z,21.10
2023-04-11T23:48:37.370Z,17.42
2023-04-11T23:52:49.951Z,20.45
2023-04-11T23:57:02.616Z,19.02
